sensor_id;sensor_type;location;lat;lon;timestamp;P1;durP1;ratioP1;P2;durP2;ratioP2
56893;SDS011;43392;50.078;13.704;2023-04-12T00:00:03;8.50;;;3.80;;
56893;SDS011;43392;50.078;13.704;2023-04-12T00:02:34;6.82;;;3.40;;
56893;SDS011;43392;50.078;13.704;2023-04-12T00:05:02;8.45;;;3.33;;
56893;SDS011;43392;50.078;13.704;2023-04-12T00:07:30;9.27;;;4.07;;
56893;SDS011;43392;50.078;13.704;2023-04-12T00:09:57;7.15;;;3.30;;
56893;SDS011;43392;50.078;13.704;2023-04-12T00:12:24;9.85;;;4.00;;
56893;SDS011;43392;50.078;13.704;2023-04-12T00:14:51;13.15;;;5.65;;
56893;SDS011;43392;50.078;13.704;2023-04-12T00:17:17;15.05;;;7.47;;
56893;SDS011;43392;50.078;13.704;2023-04-12T00:19:45;17.45;;;10.65;;
56893;SDS011;43392;50.078;13.704;2023-04-12T00:22:14;21.85;;;11.98;;
56893;SDS011;43392;50.078;13.704;2023-04-12T00:24:42;16.30;;;10.25;;
56893;SDS011;43392;50.078;13.704;2023-04-12T00:27:08;15.60;;;7.95;;
56893;SDS011;43392;50.078;13.704;2023-04-12T00:29:35;12.35;;;6.35;;
56893;SDS011;43392;50.078;13.704;2023-04-12T00:32:02;12.05;;;5.43;;
56893;SDS011;43392;50.078;13.704;2023-04-12T00:34:29;9.40;;;3.92;;
56893;SDS011;43392;50.078;13.704;2023-04-12T00:36:56;6.78;;;3.17;;
56893;SDS011;43392;50.078;13.704;2023-04-12T00:39:23;11.93;;;4.32;;
56893;SDS011;43392;50.078;13.704;2023-04-12T00:41:51;13.18;;;6.32;;
56893;SDS011;43392;50.078;13.704;2023-04-12T00:44:18;8.48;;;4.22;;
56893;SDS011;43392;50.078;13.704;2023-04-12T00:46:45;8.43;;;3.65;;
56893;SDS011;43392;50.078;13.704;2023-04-12T00:49:12;8.10;;;3.47;;
56893;SDS011;43392;50.078;13.704;2023-04-12T00:51:39;8.90;;;3.60;;
56893;SDS011;43392;50.078;13.704;2023-04-12T00:54:06;9.75;;;4.32;;
56893;SDS011;43392;50.078;13.704;2023-04-12T00:56:33;10.13;;;5.20;;
56893;SDS011;43392;50.078;13.704;2023-04-12T00:59:02;11.40;;;3.80;;
56893;SDS011;43392;50.078;13.704;2023-04-12T01:01:29;10.90;;;4.90;;
56893;SDS011;43392;50.078;13.704;2023-04-12T01:03:56;14.43;;;7.05;;
56893;SDS011;43392;50.078;13.704;2023-04-12T01:06:28;16.15;;;6.68;;
56893;SDS011;43392;50.078;13.704;2023-04-12T01:09:05;12.70;;;6.65;;
56893;SDS011;43392;50.078;13.704;2023-04-12T01:11:41;12.85;;;6.30;;
56893;SDS011;43392;50.078;13.704;2023-04-12T01:14:16;11.88;;;5.93;;
56893;SDS011;43392;50.078;13.704;2023-04-12T01:16:48;12.70;;;5.75;;
56893;SDS011;43392;50.078;13.704;2023-04-12T01:19:32;13.73;;;5.35;;
56893;SDS011;43392;50.078;13.704;2023-04-12T01:22:10;11.60;;;5.55;;
56893;SDS011;43392;50.078;13.704;2023-04-12T01:24:48;18.65;;;8.27;;
56893;SDS011;43392;50.078;13.704;2023-04-12T01:27:27;23.02;;;11.20;;
56893;SDS011;43392;50.078;13.704;2023-04-12T01:29:55;22.75;;;11.23;;
56893;SDS011;43392;50.078;13.704;2023-04-12T01:32:26;23.50;;;11.60;;
56893;SDS011;43392;50.078;13.704;2023-04-12T01:34:54;22.67;;;12.05;;
56893;SDS011;43392;50.078;13.704;2023-04-12T01:37:22;25.70;;;12.27;;
56893;SDS011;43392;50.078;13.704;2023-04-12T01:39:50;24.65;;;12.43;;
56893;SDS011;43392;50.078;13.704;2023-04-12T01:42:17;24.65;;;12.70;;
56893;SDS011;43392;50.078;13.704;2023-04-12T01:44:46;24.50;;;11.65;;
56893;SDS011;43392;50.078;13.704;2023-04-12T01:47:12;24.45;;;11.30;;
56893;SDS011;43392;50.078;13.704;2023-04-12T01:49:41;24.38;;;10.88;;
56893;SDS011;43392;50.078;13.704;2023-04-12T01:52:16;21.17;;;10.23;;
56893;SDS011;43392;50.078;13.704;2023-04-12T01:54:45;18.83;;;9.43;;
56893;SDS011;43392;50.078;13.704;2023-04-12T01:57:16;13.40;;;6.82;;
56893;SDS011;43392;50.078;13.704;2023-04-12T01:59:47;12.38;;;5.30;;
56893;SDS011;43392;50.078;13.704;2023-04-12T02:02:15;16.63;;;6.82;;
56893;SDS011;43392;50.078;13.704;2023-04-12T02:04:42;13.52;;;6.68;;
56893;SDS011;43392;50.078;13.704;2023-04-12T02:07:10;18.45;;;10.68;;
56893;SDS011;43392;50.078;13.704;2023-04-12T02:09:39;15.13;;;9.05;;
56893;SDS011;43392;50.078;13.704;2023-04-12T02:12:05;17.08;;;9.32;;
56893;SDS011;43392;50.078;13.704;2023-04-12T02:14:32;16.58;;;8.70;;
56893;SDS011;43392;50.078;13.704;2023-04-12T02:17:01;17.05;;;9.52;;
56893;SDS011;43392;50.078;13.704;2023-04-12T02:19:29;16.63;;;9.00;;
56893;SDS011;43392;50.078;13.704;2023-04-12T02:21:56;13.07;;;6.45;;
56893;SDS011;43392;50.078;13.704;2023-04-12T02:24:23;14.85;;;8.52;;
56893;SDS011;43392;50.078;13.704;2023-04-12T02:26:49;17.75;;;9.18;;
56893;SDS011;43392;50.078;13.704;2023-04-12T02:29:16;12.07;;;6.55;;
56893;SDS011;43392;50.078;13.704;2023-04-12T02:31:43;12.07;;;5.78;;
56893;SDS011;43392;50.078;13.704;2023-04-12T02:34:11;10.82;;;5.80;;
56893;SDS011;43392;50.078;13.704;2023-04-12T02:36:40;10.50;;;4.95;;
56893;SDS011;43392;50.078;13.704;2023-04-12T02:39:06;14.75;;;7.13;;
56893;SDS011;43392;50.078;13.704;2023-04-12T02:41:33;16.50;;;7.13;;
56893;SDS011;43392;50.078;13.704;2023-04-12T02:43:59;11.55;;;5.95;;
56893;SDS011;43392;50.078;13.704;2023-04-12T02:46:26;15.27;;;7.45;;
56893;SDS011;43392;50.078;13.704;2023-04-12T02:48:53;16.45;;;7.97;;
56893;SDS011;43392;50.078;13.704;2023-04-12T02:51:21;18.70;;;8.75;;
56893;SDS011;43392;50.078;13.704;2023-04-12T02:53:47;17.83;;;9.05;;
56893;SDS011;43392;50.078;13.704;2023-04-12T02:56:14;18.90;;;9.85;;
56893;SDS011;43392;50.078;13.704;2023-04-12T02:58:43;19.58;;;9.23;;
56893;SDS011;43392;50.078;13.704;2023-04-12T03:01:09;15.40;;;7.60;;
56893;SDS011;43392;50.078;13.704;2023-04-12T03:03:37;18.50;;;9.48;;
56893;SDS011;43392;50.078;13.704;2023-04-12T03:06:04;17.40;;;8.65;;
56893;SDS011;43392;50.078;13.704;2023-04-12T03:08:34;16.20;;;8.73;;
56893;SDS011;43392;50.078;13.704;2023-04-12T03:11:02;15.23;;;7.63;;
56893;SDS011;43392;50.078;13.704;2023-04-12T03:13:28;14.32;;;7.50;;
56893;SDS011;43392;50.078;13.704;2023-04-12T03:15:56;14.75;;;7.63;;
56893;SDS011;43392;50.078;13.704;2023-04-12T03:18:24;12.25;;;6.68;;
56893;SDS011;43392;50.078;13.704;2023-04-12T03:20:50;15.52;;;7.50;;
56893;SDS011;43392;50.078;13.704;2023-04-12T03:23:17;14.50;;;7.22;;
56893;SDS011;43392;50.078;13.704;2023-04-12T03:25:45;14.65;;;6.88;;
56893;SDS011;43392;50.078;13.704;2023-04-12T03:28:12;12.27;;;6.07;;
56893;SDS011;43392;50.078;13.704;2023-04-12T03:30:38;11.70;;;5.13;;
56893;SDS011;43392;50.078;13.704;2023-04-12T03:33:05;11.10;;;5.00;;
56893;SDS011;43392;50.078;13.704;2023-04-12T03:35:32;10.88;;;5.57;;
56893;SDS011;43392;50.078;13.704;2023-04-12T03:37:58;10.88;;;5.10;;
56893;SDS011;43392;50.078;13.704;2023-04-12T03:40:25;11.80;;;4.95;;
56893;SDS011;43392;50.078;13.704;2023-04-12T03:42:53;9.27;;;4.80;;
56893;SDS011;43392;50.078;13.704;2023-04-12T03:45:19;11.98;;;5.28;;
56893;SDS011;43392;50.078;13.704;2023-04-12T03:47:46;8.80;;;4.38;;
56893;SDS011;43392;50.078;13.704;2023-04-12T03:50:13;9.85;;;4.90;;
56893;SDS011;43392;50.078;13.704;2023-04-12T03:52:39;9.82;;;5.25;;
56893;SDS011;43392;50.078;13.704;2023-04-12T03:55:06;12.77;;;5.75;;
56893;SDS011;43392;50.078;13.704;2023-04-12T03:57:33;10.65;;;4.57;;
56893;SDS011;43392;50.078;13.704;2023-04-12T04:02:37;11.63;;;5.10;;
56893;SDS011;43392;50.078;13.704;2023-04-12T04:05:03;10.55;;;4.43;;
56893;SDS011;43392;50.078;13.704;2023-04-12T04:07:31;8.02;;;4.03;;
56893;SDS011;43392;50.078;13.704;2023-04-12T04:09:58;9.27;;;4.63;;
56893;SDS011;43392;50.078;13.704;2023-04-12T04:12:25;10.32;;;4.97;;
56893;SDS011;43392;50.078;13.704;2023-04-12T04:14:53;9.43;;;5.18;;
56893;SDS011;43392;50.078;13.704;2023-04-12T04:17:19;10.88;;;5.28;;
56893;SDS011;43392;50.078;13.704;2023-04-12T04:19:47;10.07;;;4.60;;
56893;SDS011;43392;50.078;13.704;2023-04-12T04:22:15;11.80;;;4.40;;
56893;SDS011;43392;50.078;13.704;2023-04-12T04:24:41;12.00;;;6.07;;
56893;SDS011;43392;50.078;13.704;2023-04-12T04:27:08;12.13;;;4.97;;
56893;SDS011;43392;50.078;13.704;2023-04-12T04:29:35;9.48;;;4.97;;
56893;SDS011;43392;50.078;13.704;2023-04-12T04:32:08;10.60;;;5.15;;
56893;SDS011;43392;50.078;13.704;2023-04-12T04:34:35;11.00;;;5.20;;
56893;SDS011;43392;50.078;13.704;2023-04-12T04:37:03;11.07;;;5.32;;
56893;SDS011;43392;50.078;13.704;2023-04-12T04:39:29;9.90;;;5.25;;
56893;SDS011;43392;50.078;13.704;2023-04-12T04:41:57;11.75;;;5.65;;
56893;SDS011;43392;50.078;13.704;2023-04-12T04:44:23;11.48;;;5.20;;
56893;SDS011;43392;50.078;13.704;2023-04-12T04:46:50;9.70;;;5.07;;
56893;SDS011;43392;50.078;13.704;2023-04-12T04:49:16;11.60;;;6.03;;
56893;SDS011;43392;50.078;13.704;2023-04-12T04:51:43;9.75;;;5.18;;
56893;SDS011;43392;50.078;13.704;2023-04-12T04:54:12;16.83;;;6.18;;
56893;SDS011;43392;50.078;13.704;2023-04-12T04:56:40;14.93;;;6.90;;
56893;SDS011;43392;50.078;13.704;2023-04-12T04:59:07;16.55;;;6.05;;
56893;SDS011;43392;50.078;13.704;2023-04-12T05:01:34;26.35;;;6.93;;
56893;SDS011;43392;50.078;13.704;2023-04-12T05:04:00;23.38;;;7.80;;
56893;SDS011;43392;50.078;13.704;2023-04-12T05:06:27;34.72;;;14.80;;
56893;SDS011;43392;50.078;13.704;2023-04-12T05:08:54;103.80;;;45.85;;
56893;SDS011;43392;50.078;13.704;2023-04-12T05:11:22;101.95;;;46.97;;
56893;SDS011;43392;50.078;13.704;2023-04-12T05:13:49;75.72;;;34.85;;
56893;SDS011;43392;50.078;13.704;2023-04-12T05:16:16;68.45;;;33.15;;
56893;SDS011;43392;50.078;13.704;2023-04-12T05:18:43;21.98;;;9.73;;
56893;SDS011;43392;50.078;13.704;2023-04-12T05:21:10;16.70;;;7.68;;
56893;SDS011;43392;50.078;13.704;2023-04-12T05:23:40;19.35;;;8.38;;
56893;SDS011;43392;50.078;13.704;2023-04-12T05:26:09;14.45;;;7.05;;
56893;SDS011;43392;50.078;13.704;2023-04-12T05:28:37;28.98;;;15.18;;
56893;SDS011;43392;50.078;13.704;2023-04-12T05:31:04;66.95;;;34.55;;
56893;SDS011;43392;50.078;13.704;2023-04-12T05:33:32;51.63;;;26.23;;
56893;SDS011;43392;50.078;13.704;2023-04-12T05:36:00;39.13;;;19.80;;
56893;SDS011;43392;50.078;13.704;2023-04-12T05:38:27;29.52;;;15.82;;
56893;SDS011;43392;50.078;13.704;2023-04-12T05:40:54;14.27;;;6.95;;
56893;SDS011;43392;50.078;13.704;2023-04-12T05:43:20;14.30;;;7.70;;
56893;SDS011;43392;50.078;13.704;2023-04-12T05:45:49;22.42;;;11.10;;
56893;SDS011;43392;50.078;13.704;2023-04-12T05:48:16;14.38;;;7.55;;
56893;SDS011;43392;50.078;13.704;2023-04-12T05:50:49;11.70;;;5.55;;
56893;SDS011;43392;50.078;13.704;2023-04-12T05:53:16;31.23;;;13.98;;
56893;SDS011;43392;50.078;13.704;2023-04-12T05:55:43;22.92;;;11.65;;
56893;SDS011;43392;50.078;13.704;2023-04-12T05:58:09;11.02;;;5.43;;
56893;SDS011;43392;50.078;13.704;2023-04-12T06:00:37;13.93;;;7.68;;
56893;SDS011;43392;50.078;13.704;2023-04-12T06:03:07;9.70;;;5.70;;
56893;SDS011;43392;50.078;13.704;2023-04-12T06:05:34;13.25;;;5.18;;
56893;SDS011;43392;50.078;13.704;2023-04-12T06:08:01;7.60;;;4.00;;
56893;SDS011;43392;50.078;13.704;2023-04-12T06:10:29;10.50;;;4.50;;
56893;SDS011;43392;50.078;13.704;2023-04-12T06:12:56;9.60;;;3.70;;
56893;SDS011;43392;50.078;13.704;2023-04-12T06:15:23;8.10;;;3.47;;
56893;SDS011;43392;50.078;13.704;2023-04-12T06:17:50;8.32;;;3.83;;
56893;SDS011;43392;50.078;13.704;2023-04-12T06:20:18;8.93;;;3.95;;
56893;SDS011;43392;50.078;13.704;2023-04-12T06:22:44;8.77;;;4.10;;
56893;SDS011;43392;50.078;13.704;2023-04-12T06:25:11;10.63;;;3.90;;
56893;SDS011;43392;50.078;13.704;2023-04-12T06:27:38;8.90;;;4.05;;
56893;SDS011;43392;50.078;13.704;2023-04-12T06:30:05;9.57;;;4.03;;
56893;SDS011;43392;50.078;13.704;2023-04-12T06:32:34;10.90;;;4.13;;
56893;SDS011;43392;50.078;13.704;2023-04-12T06:35:02;7.43;;;3.50;;
56893;SDS011;43392;50.078;13.704;2023-04-12T06:37:30;10.07;;;3.25;;
56893;SDS011;43392;50.078;13.704;2023-04-12T06:39:57;6.60;;;2.75;;
56893;SDS011;43392;50.078;13.704;2023-04-12T06:42:23;26.40;;;4.20;;
56893;SDS011;43392;50.078;13.704;2023-04-12T06:44:50;18.05;;;3.80;;
56893;SDS011;43392;50.078;13.704;2023-04-12T06:47:17;11.80;;;3.05;;
56893;SDS011;43392;50.078;13.704;2023-04-12T06:49:43;11.00;;;3.25;;
56893;SDS011;43392;50.078;13.704;2023-04-12T06:52:10;7.07;;;2.50;;
56893;SDS011;43392;50.078;13.704;2023-04-12T06:54:38;10.68;;;3.08;;
56893;SDS011;43392;50.078;13.704;2023-04-12T06:57:07;9.15;;;2.85;;
56893;SDS011;43392;50.078;13.704;2023-04-12T06:59:34;9.52;;;2.83;;
56893;SDS011;43392;50.078;13.704;2023-04-12T07:02:01;6.03;;;2.30;;
56893;SDS011;43392;50.078;13.704;2023-04-12T07:04:28;5.28;;;2.42;;
56893;SDS011;43392;50.078;13.704;2023-04-12T07:06:54;5.90;;;2.53;;
56893;SDS011;43392;50.078;13.704;2023-04-12T07:09:21;7.65;;;2.53;;
56893;SDS011;43392;50.078;13.704;2023-04-12T07:11:49;4.30;;;1.90;;
56893;SDS011;43392;50.078;13.704;2023-04-12T07:14:15;6.65;;;1.85;;
56893;SDS011;43392;50.078;13.704;2023-04-12T07:16:42;4.63;;;1.63;;
56893;SDS011;43392;50.078;13.704;2023-04-12T07:19:09;3.03;;;1.50;;
56893;SDS011;43392;50.078;13.704;2023-04-12T07:21:36;6.88;;;2.20;;
56893;SDS011;43392;50.078;13.704;2023-04-12T07:24:03;8.32;;;3.20;;
56893;SDS011;43392;50.078;13.704;2023-04-12T07:26:30;9.82;;;3.42;;
56893;SDS011;43392;50.078;13.704;2023-04-12T07:28:58;7.68;;;4.10;;
56893;SDS011;43392;50.078;13.704;2023-04-12T07:31:24;5.07;;;2.38;;
56893;SDS011;43392;50.078;13.704;2023-04-12T07:33:54;6.57;;;2.40;;
56893;SDS011;43392;50.078;13.704;2023-04-12T07:36:21;3.97;;;2.35;;
56893;SDS011;43392;50.078;13.704;2023-04-12T07:38:47;5.63;;;2.42;;
56893;SDS011;43392;50.078;13.704;2023-04-12T07:41:18;5.63;;;2.42;;
56893;SDS011;43392;50.078;13.704;2023-04-12T07:43:45;6.63;;;2.40;;
56893;SDS011;43392;50.078;13.704;2023-04-12T07:46:13;4.75;;;2.30;;
56893;SDS011;43392;50.078;13.704;2023-04-12T07:48:40;8.85;;;5.10;;
56893;SDS011;43392;50.078;13.704;2023-04-12T07:51:07;6.28;;;3.03;;
56893;SDS011;43392;50.078;13.704;2023-04-12T07:53:34;5.85;;;2.10;;
56893;SDS011;43392;50.078;13.704;2023-04-12T07:56:00;5.60;;;1.92;;
56893;SDS011;43392;50.078;13.704;2023-04-12T07:58:29;7.57;;;2.28;;
56893;SDS011;43392;50.078;13.704;2023-04-12T08:00:56;7.38;;;2.15;;
56893;SDS011;43392;50.078;13.704;2023-04-12T08:03:24;5.32;;;1.88;;
56893;SDS011;43392;50.078;13.704;2023-04-12T08:05:51;5.35;;;1.77;;
56893;SDS011;43392;50.078;13.704;2023-04-12T08:08:18;5.07;;;1.85;;
56893;SDS011;43392;50.078;13.704;2023-04-12T08:10:46;3.78;;;1.60;;
56893;SDS011;43392;50.078;13.704;2023-04-12T08:13:12;7.18;;;2.20;;
56893;SDS011;43392;50.078;13.704;2023-04-12T08:15:39;4.45;;;1.73;;
56893;SDS011;43392;50.078;13.704;2023-04-12T08:18:07;4.43;;;1.70;;
56893;SDS011;43392;50.078;13.704;2023-04-12T08:20:36;6.00;;;2.22;;
56893;SDS011;43392;50.078;13.704;2023-04-12T08:23:04;7.85;;;2.00;;
56893;SDS011;43392;50.078;13.704;2023-04-12T08:25:31;5.70;;;2.10;;
56893;SDS011;43392;50.078;13.704;2023-04-12T08:27:58;4.05;;;1.75;;
56893;SDS011;43392;50.078;13.704;2023-04-12T08:30:24;5.05;;;1.90;;
56893;SDS011;43392;50.078;13.704;2023-04-12T08:32:52;5.82;;;1.70;;
56893;SDS011;43392;50.078;13.704;2023-04-12T08:35:18;5.97;;;1.60;;
56893;SDS011;43392;50.078;13.704;2023-04-12T08:37:47;5.70;;;1.92;;
56893;SDS011;43392;50.078;13.704;2023-04-12T08:40:15;7.90;;;2.03;;
56893;SDS011;43392;50.078;13.704;2023-04-12T08:42:41;5.60;;;1.45;;
56893;SDS011;43392;50.078;13.704;2023-04-12T08:45:09;4.75;;;1.77;;
56893;SDS011;43392;50.078;13.704;2023-04-12T08:47:37;7.75;;;1.90;;
56893;SDS011;43392;50.078;13.704;2023-04-12T08:50:05;5.30;;;1.60;;
56893;SDS011;43392;50.078;13.704;2023-04-12T08:52:33;4.80;;;1.50;;
56893;SDS011;43392;50.078;13.704;2023-04-12T08:55:03;3.33;;;1.60;;
56893;SDS011;43392;50.078;13.704;2023-04-12T08:57:30;5.70;;;1.73;;
56893;SDS011;43392;50.078;13.704;2023-04-12T08:59:58;6.10;;;2.00;;
56893;SDS011;43392;50.078;13.704;2023-04-12T09:02:25;4.20;;;2.45;;
56893;SDS011;43392;50.078;13.704;2023-04-12T09:04:52;6.85;;;3.25;;
56893;SDS011;43392;50.078;13.704;2023-04-12T09:07:19;5.85;;;2.05;;
56893;SDS011;43392;50.078;13.704;2023-04-12T09:09:47;5.38;;;1.73;;
56893;SDS011;43392;50.078;13.704;2023-04-12T09:12:16;5.80;;;1.85;;
56893;SDS011;43392;50.078;13.704;2023-04-12T09:14:44;8.18;;;1.73;;
56893;SDS011;43392;50.078;13.704;2023-04-12T09:17:20;7.35;;;1.88;;
56893;SDS011;43392;50.078;13.704;2023-04-12T09:19:48;5.20;;;1.40;;
56893;SDS011;43392;50.078;13.704;2023-04-12T09:22:15;6.82;;;1.88;;
56893;SDS011;43392;50.078;13.704;2023-04-12T09:24:45;8.48;;;2.20;;
56893;SDS011;43392;50.078;13.704;2023-04-12T09:27:13;4.72;;;1.90;;
56893;SDS011;43392;50.078;13.704;2023-04-12T09:29:41;6.40;;;1.95;;
56893;SDS011;43392;50.078;13.704;2023-04-12T09:32:09;5.65;;;1.70;;
56893;SDS011;43392;50.078;13.704;2023-04-12T09:34:36;8.30;;;2.30;;
56893;SDS011;43392;50.078;13.704;2023-04-12T09:37:11;7.00;;;1.90;;
56893;SDS011;43392;50.078;13.704;2023-04-12T09:39:40;5.85;;;1.98;;
56893;SDS011;43392;50.078;13.704;2023-04-12T09:42:07;6.63;;;2.30;;
56893;SDS011;43392;50.078;13.704;2023-04-12T09:44:35;4.60;;;2.20;;
56893;SDS011;43392;50.078;13.704;2023-04-12T09:47:03;5.68;;;2.30;;
56893;SDS011;43392;50.078;13.704;2023-04-12T09:49:36;7.70;;;2.78;;
56893;SDS011;43392;50.078;13.704;2023-04-12T09:52:04;10.40;;;2.90;;
56893;SDS011;43392;50.078;13.704;2023-04-12T09:54:32;4.80;;;2.10;;
56893;SDS011;43392;50.078;13.704;2023-04-12T09:57:03;7.90;;;2.53;;
56893;SDS011;43392;50.078;13.704;2023-04-12T09:59:34;8.20;;;3.03;;
56893;SDS011;43392;50.078;13.704;2023-04-12T10:02:05;8.17;;;2.30;;
56893;SDS011;43392;50.078;13.704;2023-04-12T10:04:34;6.45;;;1.98;;
56893;SDS011;43392;50.078;13.704;2023-04-12T10:07:02;6.03;;;2.45;;
56893;SDS011;43392;50.078;13.704;2023-04-12T10:09:29;6.57;;;2.00;;
56893;SDS011;43392;50.078;13.704;2023-04-12T10:11:56;6.13;;;2.30;;
56893;SDS011;43392;50.078;13.704;2023-04-12T10:14:26;7.75;;;2.10;;
56893;SDS011;43392;50.078;13.704;2023-04-12T10:16:53;7.22;;;2.13;;
56893;SDS011;43392;50.078;13.704;2023-04-12T10:19:25;5.78;;;2.45;;
56893;SDS011;43392;50.078;13.704;2023-04-12T10:21:53;6.03;;;2.65;;
56893;SDS011;43392;50.078;13.704;2023-04-12T10:24:20;7.07;;;2.50;;
56893;SDS011;43392;50.078;13.704;2023-04-12T10:26:47;8.82;;;3.17;;
56893;SDS011;43392;50.078;13.704;2023-04-12T10:29:21;8.30;;;2.92;;
56893;SDS011;43392;50.078;13.704;2023-04-12T10:31:49;7.90;;;2.78;;
56893;SDS011;43392;50.078;13.704;2023-04-12T10:34:16;6.43;;;2.10;;
56893;SDS011;43392;50.078;13.704;2023-04-12T10:36:54;8.95;;;3.00;;
56893;SDS011;43392;50.078;13.704;2023-04-12T10:39:33;12.35;;;4.88;;
56893;SDS011;43392;50.078;13.704;2023-04-12T10:42:18;8.77;;;3.58;;
56893;SDS011;43392;50.078;13.704;2023-04-12T10:44:48;5.07;;;2.17;;
56893;SDS011;43392;50.078;13.704;2023-04-12T10:47:16;9.57;;;3.75;;
56893;SDS011;43392;50.078;13.704;2023-04-12T10:50:18;7.87;;;1.90;;
56893;SDS011;43392;50.078;13.704;2023-04-12T10:55:53;5.53;;;1.73;;
56893;SDS011;43392;50.078;13.704;2023-04-12T11:01:21;5.65;;;1.60;;
56893;SDS011;43392;50.078;13.704;2023-04-12T11:04:03;3.65;;;1.30;;
56893;SDS011;43392;50.078;13.704;2023-04-12T11:06:53;5.07;;;1.50;;
56893;SDS011;43392;50.078;13.704;2023-04-12T11:09:27;8.20;;;2.10;;
56893;SDS011;43392;50.078;13.704;2023-04-12T11:11:58;5.18;;;1.48;;
56893;SDS011;43392;50.078;13.704;2023-04-12T11:14:39;5.85;;;1.80;;
56893;SDS011;43392;50.078;13.704;2023-04-12T11:17:22;8.50;;;2.05;;
56893;SDS011;43392;50.078;13.704;2023-04-12T11:19:53;6.63;;;1.80;;
56893;SDS011;43392;50.078;13.704;2023-04-12T11:22:23;4.43;;;1.75;;
56893;SDS011;43392;50.078;13.704;2023-04-12T11:24:53;7.10;;;2.40;;
56893;SDS011;43392;50.078;13.704;2023-04-12T11:27:21;10.00;;;2.30;;
56893;SDS011;43392;50.078;13.704;2023-04-12T11:29:49;9.13;;;2.45;;
56893;SDS011;43392;50.078;13.704;2023-04-12T11:32:17;6.53;;;2.30;;
56893;SDS011;43392;50.078;13.704;2023-04-12T11:34:44;8.73;;;2.20;;
56893;SDS011;43392;50.078;13.704;2023-04-12T11:37:11;7.68;;;2.42;;
56893;SDS011;43392;50.078;13.704;2023-04-12T11:39:39;6.43;;;2.00;;
56893;SDS011;43392;50.078;13.704;2023-04-12T11:42:12;9.55;;;2.90;;
56893;SDS011;43392;50.078;13.704;2023-04-12T11:44:40;6.35;;;2.47;;
56893;SDS011;43392;50.078;13.704;2023-04-12T11:47:14;6.78;;;2.15;;
56893;SDS011;43392;50.078;13.704;2023-04-12T11:49:43;10.18;;;4.25;;
56893;SDS011;43392;50.078;13.704;2023-04-12T11:52:11;9.73;;;4.75;;
56893;SDS011;43392;50.078;13.704;2023-04-12T11:54:43;7.68;;;3.17;;
56893;SDS011;43392;50.078;13.704;2023-04-12T11:57:12;9.18;;;2.65;;
56893;SDS011;43392;50.078;13.704;2023-04-12T11:59:42;6.33;;;2.20;;
56893;SDS011;43392;50.078;13.704;2023-04-12T12:02:10;6.68;;;2.95;;
56893;SDS011;43392;50.078;13.704;2023-04-12T12:04:38;7.00;;;2.08;;
56893;SDS011;43392;50.078;13.704;2023-04-12T12:07:06;8.75;;;2.78;;
56893;SDS011;43392;50.078;13.704;2023-04-12T12:09:33;7.07;;;2.67;;
56893;SDS011;43392;50.078;13.704;2023-04-12T12:12:00;6.88;;;2.45;;
56893;SDS011;43392;50.078;13.704;2023-04-12T12:14:31;8.23;;;2.17;;
56893;SDS011;43392;50.078;13.704;2023-04-12T12:16:59;7.88;;;2.47;;
56893;SDS011;43392;50.078;13.704;2023-04-12T12:19:26;6.30;;;2.80;;
56893;SDS011;43392;50.078;13.704;2023-04-12T12:22:03;6.75;;;2.80;;
56893;SDS011;43392;50.078;13.704;2023-04-12T12:24:31;8.25;;;2.90;;
56893;SDS011;43392;50.078;13.704;2023-04-12T12:26:59;10.48;;;3.10;;
56893;SDS011;43392;50.078;13.704;2023-04-12T12:29:34;6.72;;;2.30;;
56893;SDS011;43392;50.078;13.704;2023-04-12T12:32:02;4.97;;;2.10;;
56893;SDS011;43392;50.078;13.704;2023-04-12T12:34:34;6.55;;;2.55;;
56893;SDS011;43392;50.078;13.704;2023-04-12T12:37:01;6.50;;;2.40;;
56893;SDS011;43392;50.078;13.704;2023-04-12T12:39:28;7.75;;;2.42;;
56893;SDS011;43392;50.078;13.704;2023-04-12T12:41:54;8.10;;;3.30;;
56893;SDS011;43392;50.078;13.704;2023-04-12T12:44:22;8.98;;;3.65;;
56893;SDS011;43392;50.078;13.704;2023-04-12T12:46:50;8.63;;;4.30;;
56893;SDS011;43392;50.078;13.704;2023-04-12T12:49:16;10.35;;;4.65;;
56893;SDS011;43392;50.078;13.704;2023-04-12T12:51:43;9.82;;;3.50;;
56893;SDS011;43392;50.078;13.704;2023-04-12T12:54:13;8.10;;;4.68;;
56893;SDS011;43392;50.078;13.704;2023-04-12T12:56:40;5.47;;;2.85;;
56893;SDS011;43392;50.078;13.704;2023-04-12T12:59:12;15.52;;;4.20;;
56893;SDS011;43392;50.078;13.704;2023-04-12T13:01:39;8.15;;;2.80;;
56893;SDS011;43392;50.078;13.704;2023-04-12T13:04:07;9.63;;;3.65;;
56893;SDS011;43392;50.078;13.704;2023-04-12T13:06:33;14.10;;;5.07;;
56893;SDS011;43392;50.078;13.704;2023-04-12T13:09:00;15.60;;;5.65;;
56893;SDS011;43392;50.078;13.704;2023-04-12T13:11:27;13.55;;;5.47;;
56893;SDS011;43392;50.078;13.704;2023-04-12T13:13:59;10.07;;;4.45;;
56893;SDS011;43392;50.078;13.704;2023-04-12T13:16:26;15.02;;;4.43;;
56893;SDS011;43392;50.078;13.704;2023-04-12T13:18:54;8.48;;;2.83;;
56893;SDS011;43392;50.078;13.704;2023-04-12T13:21:22;13.85;;;4.38;;
56893;SDS011;43392;50.078;13.704;2023-04-12T13:23:48;10.75;;;4.18;;
56893;SDS011;43392;50.078;13.704;2023-04-12T13:26:15;14.02;;;5.10;;
56893;SDS011;43392;50.078;13.704;2023-04-12T13:28:42;11.85;;;3.63;;
56893;SDS011;43392;50.078;13.704;2023-04-12T13:31:09;12.93;;;4.30;;
56893;SDS011;43392;50.078;13.704;2023-04-12T13:33:36;11.23;;;3.75;;
56893;SDS011;43392;50.078;13.704;2023-04-12T13:36:02;9.80;;;5.00;;
56893;SDS011;43392;50.078;13.704;2023-04-12T13:38:31;8.60;;;4.25;;
56893;SDS011;43392;50.078;13.704;2023-04-12T13:40:58;7.20;;;4.20;;
56893;SDS011;43392;50.078;13.704;2023-04-12T13:43:24;8.25;;;4.07;;
56893;SDS011;43392;50.078;13.704;2023-04-12T13:45:51;8.90;;;3.25;;
56893;SDS011;43392;50.078;13.704;2023-04-12T13:48:17;8.65;;;3.58;;
56893;SDS011;43392;50.078;13.704;2023-04-12T13:50:44;9.38;;;3.15;;
56893;SDS011;43392;50.078;13.704;2023-04-12T13:53:11;11.05;;;4.95;;
56893;SDS011;43392;50.078;13.704;2023-04-12T13:55:39;18.80;;;9.27;;
56893;SDS011;43392;50.078;13.704;2023-04-12T13:58:06;9.65;;;4.53;;
56893;SDS011;43392;50.078;13.704;2023-04-12T14:00:32;12.63;;;5.85;;
56893;SDS011;43392;50.078;13.704;2023-04-12T14:02:59;19.42;;;10.57;;
56893;SDS011;43392;50.078;13.704;2023-04-12T14:05:26;8.93;;;3.95;;
56893;SDS011;43392;50.078;13.704;2023-04-12T14:07:53;8.38;;;2.97;;
56893;SDS011;43392;50.078;13.704;2023-04-12T14:10:19;7.75;;;3.00;;
56893;SDS011;43392;50.078;13.704;2023-04-12T14:12:47;5.50;;;2.80;;
56893;SDS011;43392;50.078;13.704;2023-04-12T14:15:14;10.88;;;4.80;;
56893;SDS011;43392;50.078;13.704;2023-04-12T14:17:40;14.77;;;6.30;;
56893;SDS011;43392;50.078;13.704;2023-04-12T14:20:07;9.98;;;3.42;;
56893;SDS011;43392;50.078;13.704;2023-04-12T14:22:36;16.73;;;10.18;;
56893;SDS011;43392;50.078;13.704;2023-04-12T14:25:03;8.48;;;5.20;;
56893;SDS011;43392;50.078;13.704;2023-04-12T14:27:30;7.72;;;3.15;;
56893;SDS011;43392;50.078;13.704;2023-04-12T14:30:00;8.73;;;3.53;;
56893;SDS011;43392;50.078;13.704;2023-04-12T14:32:27;6.07;;;3.00;;
56893;SDS011;43392;50.078;13.704;2023-04-12T14:34:54;11.82;;;4.03;;
56893;SDS011;43392;50.078;13.704;2023-04-12T14:37:20;9.82;;;4.13;;
56893;SDS011;43392;50.078;13.704;2023-04-12T14:39:47;9.23;;;4.38;;
56893;SDS011;43392;50.078;13.704;2023-04-12T14:42:13;14.82;;;6.45;;